»·PEaware :: N335AK KSAC-KGUC

N335AK :: KSAC-KGUC

FLIGHT INFORMATION

Flight Status: Arrived
Operator: Privately registered:
United States
More flights under this callsign
Pilot: Gabor H. (24209)
Aircraft: Unknown
(EPIC)
More flights by this aircraft type
Origin: KSAC Sacramento Executive
United States
Destination: KGUC Gunnison Co
United States
More flights between these airports :: More routes between these airports
Route: LIN MTJ HBU
File this flight plan on PilotEdge
Remarks:
Altitude:
(Current/Filed)
33,000ft
Speed:
(Current/Filed)
325kts
Departed: 14-Nov-20 01:00 PM
Arrived: 14-Nov-20 03:00 PM
Distance/Time
Traveled:
682nm/2:00
Distance/Time
To Go:
Arrived

Flight Plot

Page will automatically refresh every two minutes.

Flight plan parsing failed; only flown route is shown


Map Options




Map Legend


Flown Route
Filed Route
Departure Airport
Arrival Airport
Navaid (VOR, NDB)
Fix

Horizontal Profiles

Position Reports

Time Latitude Longitude Heading Altitude Ground
Speed
14-Nov-20 12:41 38.514770 -121.498394 226 23ft 0kts
14-Nov-20 12:42 38.514770 -121.498394 226 23ft 0kts
14-Nov-20 12:43 38.514770 -121.498394 226 23ft 0kts
14-Nov-20 12:44 38.514770 -121.498394 226 23ft 0kts
14-Nov-20 12:45 38.514770 -121.498394 226 23ft 0kts
14-Nov-20 12:46 38.514770 -121.498394 226 23ft 0kts
14-Nov-20 12:47 38.514770 -121.498394 226 23ft 0kts
14-Nov-20 12:48 38.514770 -121.498394 226 23ft 0kts
14-Nov-20 12:49 38.514770 -121.498394 226 23ft 0kts
14-Nov-20 12:50 38.514770 -121.498394 226 23ft 0kts
14-Nov-20 12:51 38.514770 -121.498394 226 23ft 0kts
14-Nov-20 12:52 38.514770 -121.498394 226 23ft 0kts
14-Nov-20 12:53 38.514770 -121.498394 226 23ft 0kts
14-Nov-20 12:54 38.514770 -121.498394 226 23ft 0kts
14-Nov-20 12:55 38.514744 -121.498429 226 23ft 3kts
14-Nov-20 12:56 38.514614 -121.494618 32 25ft 17kts
14-Nov-20 12:57 38.519177 -121.490421 92 25ft 0kts
14-Nov-20 12:58 38.519176 -121.490395 93 25ft 2kts
14-Nov-20 12:59 38.515598 -121.492171 212 25ft 86kts
14-Nov-20 13:00 38.486806 -121.478356 103 1959ft 170kts
14-Nov-20 13:01 38.472603 -121.413625 103 1995ft 204kts
14-Nov-20 13:02 38.457137 -121.341305 103 3272ft 216kts
14-Nov-20 13:03 38.440787 -121.265985 103 6097ft 229kts
14-Nov-20 13:04 38.423573 -121.185505 103 8815ft 243kts
14-Nov-20 13:05 38.405438 -121.101350 103 11476ft 253kts
14-Nov-20 13:06 38.387038 -121.013367 102 13938ft 265kts
14-Nov-20 13:07 38.367998 -120.920716 102 16218ft 278kts
14-Nov-20 13:08 38.347731 -120.823025 102 18324ft 293kts
14-Nov-20 13:09 38.325750 -120.718082 102 19538ft 326kts
14-Nov-20 13:10 38.316137 -120.607803 80 21559ft 306kts
14-Nov-20 13:11 38.323253 -120.502749 78 23553ft 292kts
14-Nov-20 13:12 38.330311 -120.399163 77 25090ft 298kts
14-Nov-20 13:13 38.337457 -120.292566 78 26306ft 307kts
14-Nov-20 13:14 38.344723 -120.182654 78 27364ft 314kts
14-Nov-20 13:15 38.351977 -120.071269 77 28357ft 318kts
14-Nov-20 13:16 38.359210 -119.958659 77 29355ft 319kts
14-Nov-20 13:17 38.366317 -119.846301 77 30358ft 318kts
14-Nov-20 13:18 38.373295 -119.734358 76 31285ft 318kts
14-Nov-20 13:19 38.380245 -119.620986 76 32015ft 324kts
14-Nov-20 13:20 38.387190 -119.505684 76 32701ft 328kts
14-Nov-20 13:21 38.394114 -119.389230 76 33283ft 333kts
14-Nov-20 13:22 38.401180 -119.268046 77 33293ft 351kts
14-Nov-20 13:23 38.408297 -119.143357 77 33292ft 355kts
14-Nov-20 13:24 38.415383 -119.017217 77 33293ft 359kts
14-Nov-20 13:25 38.422414 -118.889818 78 33294ft 362kts
14-Nov-20 13:26 38.429333 -118.761534 78 33297ft 365kts
14-Nov-20 13:27 38.436182 -118.632063 78 33298ft 366kts
14-Nov-20 13:28 38.442862 -118.503001 78 33299ft 366kts
14-Nov-20 13:29 38.449413 -118.373670 78 33302ft 366kts
14-Nov-20 13:30 38.455834 -118.244163 79 33288ft 365kts
14-Nov-20 13:31 38.462085 -118.115252 79 33290ft 364kts
14-Nov-20 13:32 38.468164 -117.986663 79 33293ft 363kts
14-Nov-20 13:33 38.474121 -117.857935 79 33295ft 363kts
14-Nov-20 13:34 38.479932 -117.729413 79 33293ft 364kts
14-Nov-20 13:35 38.485615 -117.600249 79 33289ft 365kts
14-Nov-20 13:36 38.491169 -117.470932 79 33291ft 365kts
14-Nov-20 13:37 38.496593 -117.341373 80 33288ft 366kts
14-Nov-20 13:38 38.501862 -117.211907 80 33279ft 364kts
14-Nov-20 13:39 38.506971 -117.082661 79 33282ft 364kts
14-Nov-20 13:40 38.511948 -116.953793 79 33283ft 363kts
14-Nov-20 13:41 38.516752 -116.825420 78 33286ft 364kts
14-Nov-20 13:42 38.521456 -116.696035 78 33287ft 364kts
14-Nov-20 13:43 38.525995 -116.567047 78 33289ft 365kts
14-Nov-20 13:44 38.530408 -116.437653 78 33291ft 365kts
14-Nov-20 13:45 38.534687 -116.308071 79 33278ft 365kts
14-Nov-20 13:46 38.538791 -116.179330 79 33279ft 361kts
14-Nov-20 13:47 38.542744 -116.051159 79 33281ft 360kts
14-Nov-20 13:48 38.546522 -115.923728 79 33284ft 359kts
14-Nov-20 13:49 38.550185 -115.795909 79 33294ft 359kts
14-Nov-20 13:50 38.553706 -115.668335 79 33305ft 360kts
14-Nov-20 13:51 38.557071 -115.540741 79 33308ft 360kts
14-Nov-20 13:52 38.560333 -115.412540 79 33310ft 361kts
14-Nov-20 13:53 38.563446 -115.284281 80 33295ft 361kts
14-Nov-20 13:54 38.566404 -115.156432 79 33297ft 359kts
14-Nov-20 13:55 38.569223 -115.028540 79 33299ft 360kts
14-Nov-20 13:56 38.571923 -114.900454 78 33302ft 361kts
14-Nov-20 13:57 38.574482 -114.772054 79 33304ft 362kts
14-Nov-20 13:58 38.576898 -114.643392 79 33306ft 364kts
14-Nov-20 14:00 38.579189 -114.514081 79 33309ft 365kts
14-Nov-20 14:01 38.581355 -114.384145 79 33310ft 366kts
14-Nov-20 14:02 38.583365 -114.254012 79 33295ft 365kts
14-Nov-20 14:03 38.585224 -114.124695 79 33286ft 364kts
14-Nov-20 14:04 38.586949 -113.995304 79 33272ft 364kts
14-Nov-20 14:05 38.588530 -113.865590 79 33269ft 364kts
14-Nov-20 14:06 38.589975 -113.735656 80 33270ft 369kts
14-Nov-20 14:07 38.591301 -113.603665 80 33270ft 374kts
14-Nov-20 14:08 38.592466 -113.470630 80 33273ft 377kts
14-Nov-20 14:09 38.593503 -113.335829 81 33264ft 379kts
14-Nov-20 14:10 38.594379 -113.201550 81 33260ft 378kts
14-Nov-20 14:11 38.595107 -113.067076 81 33262ft 377kts
14-Nov-20 14:12 38.595683 -112.932996 81 33265ft 378kts
14-Nov-20 14:12 38.596067 -112.820927 81 33267ft 380kts
14-Nov-20 14:14 38.596399 -112.662612 81 33269ft 383kts
14-Nov-20 14:14 38.596494 -112.549182 81 33274ft 384kts
14-Nov-20 14:16 38.596470 -112.389399 81 33281ft 386kts
14-Nov-20 14:17 38.596252 -112.252023 82 33265ft 386kts
14-Nov-20 14:17 38.595964 -112.138072 82 33260ft 385kts
14-Nov-20 14:19 38.595375 -111.978720 82 33258ft 384kts
14-Nov-20 14:19 38.594807 -111.864557 82 33259ft 385kts
14-Nov-20 14:21 38.593830 -111.705060 81 33258ft 385kts
14-Nov-20 14:21 38.592999 -111.590756 82 33255ft 386kts
14-Nov-20 14:23 38.591659 -111.430530 82 33256ft 387kts
14-Nov-20 14:23 38.590576 -111.315770 83 33239ft 387kts
14-Nov-20 14:24 38.589099 -111.178649 82 33240ft 385kts
14-Nov-20 14:25 38.587461 -111.041775 82 33244ft 385kts
14-Nov-20 14:26 38.585684 -110.904078 81 33244ft 388kts
14-Nov-20 14:27 38.583754 -110.765753 81 33251ft 392kts
14-Nov-20 14:28 38.581590 -110.625710 81 33255ft 395kts
14-Nov-20 14:29 38.579247 -110.485070 81 33259ft 397kts
14-Nov-20 14:30 38.576742 -110.343487 82 33244ft 399kts
14-Nov-20 14:31 38.574063 -110.201660 82 33193ft 398kts
14-Nov-20 14:32 38.571223 -110.060312 82 33180ft 397kts
14-Nov-20 14:33 38.568193 -109.919249 82 33184ft 397kts
14-Nov-20 14:34 38.565020 -109.778344 82 33187ft 397kts
14-Nov-20 14:35 38.561678 -109.637265 82 33187ft 398kts
14-Nov-20 14:36 38.558131 -109.495719 82 33192ft 399kts
14-Nov-20 14:37 38.554426 -109.353872 82 33195ft 400kts
14-Nov-20 14:38 38.550547 -109.212571 82 33176ft 398kts
14-Nov-20 14:39 38.546513 -109.071055 83 33162ft 399kts
14-Nov-20 14:40 38.542260 -108.928524 83 33149ft 404kts
14-Nov-20 14:41 38.537813 -108.784743 83 33150ft 408kts
14-Nov-20 14:42 38.533120 -108.639315 83 33160ft 411kts
14-Nov-20 14:43 38.528097 -108.488287 85 31866ft 450kts
14-Nov-20 14:44 38.522321 -108.323412 86 29446ft 476kts
14-Nov-20 14:45 38.516186 -108.154503 87 26862ft 474kts
14-Nov-20 14:46 38.509935 -107.989170 88 24353ft 457kts
14-Nov-20 14:47 38.502386 -107.831668 90 21635ft 425kts
14-Nov-20 14:48 38.493795 -107.689850 90 19371ft 388kts
14-Nov-20 14:49 38.485431 -107.554597 91 17331ft 378kts
14-Nov-20 14:50 38.477240 -107.424825 91 15400ft 356kts
14-Nov-20 14:51 38.469534 -107.304526 92 13625ft 324kts
14-Nov-20 14:52 38.464049 -107.195447 80 12810ft 299kts
14-Nov-20 14:53 38.475292 -107.089703 78 11779ft 297kts
14-Nov-20 14:54 38.500002 -106.994156 67 10271ft 267kts
14-Nov-20 14:55 38.519888 -106.909663 80 9124ft 219kts
14-Nov-20 14:56 38.528692 -106.854507 56 8855ft 141kts
14-Nov-20 14:57 38.546422 -106.871693 274 8415ft 99kts
14-Nov-20 14:58 38.541613 -106.905457 254 7873ft 94kts
14-Nov-20 14:59 38.536766 -106.926313 249 7668ft 32kts
14-Nov-20 15:00 38.536562 -106.932217 256 7667ft 19kts
14-Nov-20 15:01 38.535069 -106.938497 255 7664ft 7kts
14-Nov-20 15:02 38.535263 -106.941094 271 7662ft 6kts
14-Nov-20 15:03 38.535254 -106.941282 256 7662ft 0kts
14-Nov-20 15:04 38.535254 -106.941282 256 7662ft 0kts
14-Nov-20 15:05 38.535254 -106.941282 256 7662ft 0kts
14-Nov-20 15:06 38.535254 -106.941282 256 7662ft 0kts
14-Nov-20 15:07 38.535254 -106.941282 256 7662ft 0kts
14-Nov-20 15:08 38.535254 -106.941282 256 7662ft 0kts
14-Nov-20 15:09 38.535254 -106.941282 256 7662ft 0kts
14-Nov-20 15:10 38.535254 -106.941282 256 7662ft 0kts

Navigation Log

Ident Type
Flight plan parsing failed, navigation log unavailable